createdAt,value
2018-09-19T00:02:07.101Z,97.00
2018-09-19T00:07:10.389Z,97.90
2018-09-19T00:12:13.678Z,98.20
2018-09-19T00:17:17.169Z,99.30
2018-09-19T00:22:20.506Z,98.70
2018-09-19T00:27:23.801Z,98.60
2018-09-19T00:32:27.237Z,98.00
2018-09-19T00:37:30.644Z,98.00
2018-09-19T00:42:33.966Z,99.00
2018-09-19T00:47:37.373Z,99.00
2018-09-19T00:52:40.684Z,99.10
2018-09-19T00:57:44.115Z,98.70
2018-09-19T01:02:47.428Z,98.50
2018-09-19T01:07:50.737Z,98.00
2018-09-19T01:12:54.168Z,98.30
2018-09-19T01:17:57.539Z,98.10
2018-09-19T01:23:00.844Z,97.60
2018-09-19T01:28:04.285Z,97.80
2018-09-19T01:33:07.566Z,97.70
2018-09-19T01:38:10.938Z,98.00
2018-09-19T01:43:14.228Z,97.80
2018-09-19T01:48:17.660Z,97.80
2018-09-19T01:53:21.027Z,98.50
2018-09-19T01:58:24.519Z,98.40
2018-09-19T02:03:27.841Z,97.50
2018-09-19T02:08:31.152Z,97.20
2018-09-19T02:13:34.592Z,97.00
2018-09-19T02:18:37.921Z,97.20
2018-09-19T02:23:41.227Z,97.30
2018-09-19T02:28:44.679Z,96.90
2018-09-19T02:33:47.919Z,97.10
2018-09-19T02:38:52.835Z,96.90
2018-09-19T02:43:56.152Z,97.00
2018-09-19T02:48:59.538Z,97.10
2018-09-19T02:54:02.873Z,97.00
2018-09-19T02:59:06.221Z,97.20
2018-09-19T03:04:09.509Z,97.50
2018-09-19T03:09:12.989Z,97.80
2018-09-19T03:14:16.268Z,97.80
2018-09-19T03:19:19.601Z,98.00
2018-09-19T03:24:22.903Z,98.10
2018-09-19T03:29:26.380Z,97.90
2018-09-19T03:34:29.780Z,98.00
2018-09-19T03:39:33.095Z,97.90
2018-09-19T03:44:36.548Z,98.10
2018-09-19T03:49:39.825Z,98.10
2018-09-19T03:54:43.128Z,98.00
2018-09-19T03:59:46.440Z,97.90
2018-09-19T04:04:49.730Z,97.70
2018-09-19T04:09:53.046Z,98.20
2018-09-19T04:14:56.361Z,98.50
2018-09-19T04:19:59.700Z,98.90
2018-09-19T04:25:03.035Z,98.40
2018-09-19T04:30:06.424Z,98.80
2018-09-19T04:35:09.783Z,98.50
2018-09-19T04:40:13.162Z,98.80
2018-09-19T04:45:16.563Z,99.00
2018-09-19T04:50:19.770Z,99.90
2018-09-19T04:55:23.200Z,99.90
2018-09-19T05:00:26.552Z,99.90
2018-09-19T05:05:29.935Z,99.90
2018-09-19T05:10:33.333Z,99.90
2018-09-19T05:15:36.798Z,99.90
2018-09-19T05:20:40.077Z,99.90
2018-09-19T05:25:43.537Z,99.90
2018-09-19T05:30:46.826Z,99.80
2018-09-19T05:35:50.129Z,99.90
2018-09-19T05:40:53.666Z,99.90
2018-09-19T05:45:56.991Z,99.90
2018-09-19T05:51:00.288Z,99.90
2018-09-19T05:56:03.653Z,99.90
2018-09-19T06:01:06.961Z,99.90
2018-09-19T06:06:10.238Z,99.90
2018-09-19T06:11:13.634Z,99.90
2018-09-19T06:16:16.942Z,99.90
2018-09-19T06:21:20.344Z,99.90
2018-09-19T06:26:23.794Z,99.90
2018-09-19T06:31:27.164Z,99.90
2018-09-19T06:36:30.586Z,99.90
2018-09-19T06:41:33.997Z,99.90
2018-09-19T06:46:37.335Z,99.90
2018-09-19T06:51:40.857Z,99.90
2018-09-19T06:56:44.176Z,99.90
2018-09-19T07:01:47.670Z,99.90
2018-09-19T07:06:51.246Z,99.90
2018-09-19T07:11:54.589Z,99.90
2018-09-19T07:16:57.905Z,99.90
2018-09-19T07:22:01.432Z,99.90
2018-09-19T07:27:04.969Z,99.90
2018-09-19T07:32:08.826Z,99.90
2018-09-19T07:37:12.125Z,99.90
2018-09-19T07:42:15.529Z,99.90
2018-09-19T07:47:18.830Z,99.90
2018-09-19T07:52:22.225Z,99.90
2018-09-19T07:57:25.641Z,99.90
2018-09-19T08:02:29.033Z,99.90
2018-09-19T08:07:32.351Z,99.90
2018-09-19T08:12:35.788Z,99.90
2018-09-19T08:17:39.081Z,99.90
2018-09-19T08:22:42.548Z,99.90
2018-09-19T08:27:45.882Z,99.90
2018-09-19T08:32:49.282Z,99.90
2018-09-19T08:37:52.866Z,99.90
2018-09-19T08:42:56.230Z,99.90
2018-09-19T08:47:59.609Z,99.90
2018-09-19T08:53:03.481Z,99.90
2018-09-19T08:58:06.765Z,99.90
2018-09-19T09:03:10.139Z,99.90
2018-09-19T09:08:13.631Z,99.90
2018-09-19T09:13:16.925Z,99.90
2018-09-19T09:18:20.212Z,99.90
2018-09-19T09:23:23.558Z,99.90
2018-09-19T09:28:26.858Z,99.90
2018-09-19T09:33:30.181Z,99.90
2018-09-19T09:38:33.659Z,99.90
2018-09-19T09:43:37.175Z,99.90
2018-09-19T09:48:40.633Z,99.90
2018-09-19T09:53:44.053Z,99.90
2018-09-19T10:03:50.504Z,99.90
2018-09-19T10:08:53.829Z,99.90
2018-09-19T10:13:57.307Z,99.90
2018-09-19T10:19:00.597Z,99.90
2018-09-19T10:24:03.922Z,99.90
2018-09-19T10:29:07.412Z,99.40
2018-09-19T10:34:10.725Z,99.70
2018-09-19T10:39:14.161Z,99.80
2018-09-19T10:44:17.476Z,99.60
2018-09-19T10:49:20.955Z,99.30
2018-09-19T10:54:24.196Z,98.50
2018-09-19T10:59:27.647Z,97.60
2018-09-19T11:04:31.055Z,96.40
2018-09-19T11:09:34.345Z,97.40
2018-09-19T11:14:37.705Z,97.80
2018-09-19T11:19:41.214Z,97.80
2018-09-19T11:24:44.564Z,97.20
2018-09-19T11:29:47.858Z,96.20
2018-09-19T11:34:51.230Z,96.90
2018-09-19T11:39:54.545Z,94.90
2018-09-19T11:44:57.857Z,94.60
2018-09-19T11:50:01.173Z,95.60
2018-09-19T11:55:04.588Z,95.00
2018-09-19T12:00:07.958Z,94.90
2018-09-19T12:05:11.232Z,94.10
2018-09-19T12:10:14.827Z,93.40
2018-09-19T12:15:18.100Z,91.40
2018-09-19T12:20:21.589Z,91.30
2018-09-19T12:25:25.201Z,89.10
2018-09-19T12:30:28.546Z,89.10
2018-09-19T12:35:32.084Z,89.00
2018-09-19T12:40:35.453Z,87.20
2018-09-19T12:50:41.776Z,85.60
2018-09-19T12:55:45.186Z,87.90
2018-09-19T13:00:49.017Z,83.40
2018-09-19T13:05:52.318Z,82.70
2018-09-19T13:10:55.669Z,80.40
2018-09-19T13:15:59.003Z,84.00
2018-09-19T13:21:02.337Z,83.50
2018-09-19T13:26:05.709Z,80.70
2018-09-19T13:31:09.087Z,80.60
2018-09-19T13:41:15.643Z,81.30
2018-09-19T13:46:18.966Z,79.60
2018-09-19T13:51:23.901Z,78.20
2018-09-19T13:56:27.231Z,78.10
2018-09-19T14:01:30.613Z,79.20
2018-09-19T14:06:33.970Z,80.20
2018-09-19T14:11:37.590Z,81.80
2018-09-19T14:21:44.969Z,74.30
2018-09-19T14:26:48.268Z,73.90
2018-09-19T14:31:51.732Z,76.50
2018-09-19T14:36:55.080Z,72.90
2018-09-19T14:41:58.553Z,70.70
2018-09-19T14:47:01.873Z,72.20
2018-09-19T14:52:05.195Z,72.80
2018-09-19T14:57:08.717Z,71.70
2018-09-19T15:02:12.025Z,72.20
2018-09-19T15:07:15.732Z,72.00
2018-09-19T15:12:19.006Z,71.70
2018-09-19T15:17:22.431Z,71.80
2018-09-19T15:22:25.925Z,72.70
2018-09-19T15:27:29.399Z,72.60
2018-09-19T15:32:32.919Z,72.80
2018-09-19T15:37:36.230Z,71.80
2018-09-19T15:42:39.578Z,70.50
2018-09-19T15:47:42.956Z,70.60
2018-09-19T15:52:46.274Z,71.00
2018-09-19T15:57:49.735Z,71.10
2018-09-19T16:02:52.995Z,71.10
2018-09-19T16:07:56.401Z,70.70
2018-09-19T16:12:59.824Z,72.30
2018-09-19T16:18:03.133Z,72.70
2018-09-19T16:23:06.544Z,73.90
2018-09-19T16:28:09.924Z,73.10
2018-09-19T16:33:13.397Z,73.40
2018-09-19T16:38:16.710Z,74.40
2018-09-19T16:43:20.751Z,75.60
2018-09-19T16:48:24.291Z,76.40
2018-09-19T16:53:27.754Z,77.90
2018-09-19T16:58:31.209Z,78.30
2018-09-19T17:03:34.521Z,79.00
2018-09-19T17:08:37.837Z,80.50
2018-09-19T17:13:41.216Z,81.80
2018-09-19T17:18:44.658Z,83.00
2018-09-19T17:23:47.974Z,83.60
2018-09-19T17:28:51.316Z,84.80
2018-09-19T17:33:54.686Z,85.10
2018-09-19T17:38:58.008Z,85.90
2018-09-19T17:44:01.409Z,87.20
2018-09-19T17:49:04.772Z,87.20
2018-09-19T17:54:08.251Z,88.50
2018-09-19T17:59:11.742Z,88.80
2018-09-19T18:04:15.094Z,89.20
2018-09-19T18:09:18.960Z,89.30
2018-09-19T18:14:22.285Z,90.20
2018-09-19T18:19:26.522Z,90.40
2018-09-19T18:24:30.268Z,90.70
2018-09-19T18:29:33.850Z,90.60
2018-09-19T18:34:37.444Z,91.30
2018-09-19T18:39:40.870Z,91.20
2018-09-19T18:44:45.018Z,91.40
2018-09-19T18:49:48.607Z,91.40
2018-09-19T18:54:52.239Z,91.50
2018-09-19T18:59:56.498Z,93.50
2018-09-19T19:05:00.109Z,92.90
2018-09-19T19:10:04.557Z,93.00
2018-09-19T19:15:08.201Z,93.70
2018-09-19T19:20:11.740Z,94.70
2018-09-19T19:25:15.461Z,94.70
2018-09-19T19:30:18.824Z,95.30
2018-09-19T19:35:22.121Z,96.10
2018-09-19T19:40:25.561Z,97.00
2018-09-19T19:45:28.862Z,96.60
2018-09-19T19:50:32.171Z,97.90
2018-09-19T19:55:35.480Z,98.20
2018-09-19T20:00:38.986Z,98.30
2018-09-19T20:05:42.455Z,98.40
2018-09-19T20:10:46.079Z,97.50
2018-09-19T20:15:49.528Z,97.60
2018-09-19T20:20:53.021Z,97.60
2018-09-19T20:25:56.599Z,98.70
2018-09-19T20:30:59.904Z,99.50
2018-09-19T20:36:03.367Z,99.10
2018-09-19T20:41:06.822Z,99.90
2018-09-19T20:46:10.107Z,99.90
2018-09-19T20:51:13.528Z,99.90
2018-09-19T20:56:16.895Z,99.90
2018-09-19T21:01:20.192Z,99.90
2018-09-19T21:06:23.652Z,99.90
2018-09-19T21:11:27.027Z,99.90
2018-09-19T21:16:30.523Z,99.60
2018-09-19T21:21:33.843Z,99.90
2018-09-19T21:26:37.528Z,99.90
2018-09-19T21:31:41.502Z,99.90
2018-09-19T21:36:45.619Z,99.90
2018-09-19T21:41:49.156Z,99.90
2018-09-19T21:46:52.473Z,99.90
2018-09-19T21:51:55.798Z,99.90
2018-09-19T21:56:59.291Z,99.90
2018-09-19T22:02:02.594Z,99.90
2018-09-19T22:07:06.214Z,99.90
2018-09-19T22:12:10.235Z,99.90
2018-09-19T22:17:15.704Z,99.90
2018-09-19T22:22:19.073Z,99.90
2018-09-19T22:27:22.381Z,99.90
2018-09-19T22:32:25.816Z,99.90
2018-09-19T22:37:29.172Z,99.90
2018-09-19T22:42:32.667Z,99.90
2018-09-19T22:47:35.956Z,99.90
2018-09-19T22:52:39.348Z,99.90
2018-09-19T22:57:42.654Z,99.90
2018-09-19T23:02:46.080Z,99.90
2018-09-19T23:07:49.492Z,99.90
2018-09-19T23:12:52.824Z,99.90
2018-09-19T23:17:56.327Z,99.90
2018-09-19T23:22:59.732Z,99.90
2018-09-19T23:28:03.046Z,99.90
2018-09-19T23:33:06.598Z,99.90
2018-09-19T23:38:09.903Z,99.90
2018-09-19T23:43:13.292Z,99.90
2018-09-19T23:48:16.589Z,99.90
2018-09-19T23:53:19.900Z,99.90
2018-09-19T23:58:23.279Z,99.90
